KCHO/CHO METAR and TAF weather

Enter ICAO airport designator
Station Type Date Time Source
KCHO METAR 2018/10/21 05:53 UTC NOAA

KCHO 210553Z AUTO 28007KT 10SM BKN120 09/01 A2987 RMK AO2 PRESFR SLP112 60002 T00940006 10156 20094 51042


Station Type Date Time Source
KCHO Decoded METAR 2018/10/21 05:53 UTC NOAA

CHARLOTTESVILLE-ALBEMARLE, VA, United States (KCHO) 38-08N 078-27W 192M
Oct 21, 2018 - 01:53 AM EDT / 2018.10.21 0553 UTC
Wind: from the W (280 degrees) at 8 MPH (7 KT):0
Visibility: 10 mile(s):0
Sky conditions: mostly cloudy
Temperature: 48.9 F (9.4 C)
Dew Point: 33.1 F (0.6 C)
Relative Humidity: 54%
Pressure (altimeter): 29.87 in. Hg (1011 hPa)
Pressure tendency: falling rapidly - 0.12 inches (4.2 hPa) higher than three hours ago
ob: KCHO 210553Z AUTO 28007KT 10SM BKN120 09/01 A2987 RMK AO2 PRESFR SLP112 60002 T00940006 10156 20094 51042
cycle: 6

Station Type Date Time Source
KCHO TAF 2018/10/21 06:42 UTC NOAA

TAF KCHO 210541Z 2106/2206 30012G26KT P6SM BKN090
FM210900 31014G30KT P6SM SCT250
FM212100 32010G18KT P6SM SKC
FM220000 31006KT P6SM SKC
FM220400 00000KT P6SM SKC


Example: see airport list